sensor_id;sensor_type;location;lat;lon;timestamp;pressure;altitude;pressure_sealevel;temperature;humidity
16664;BME280;8445;51.270;9.434;2024-03-17T00:00:24;100306.94;;;6.38;68.06
16664;BME280;8445;51.270;9.434;2024-03-17T00:02:51;100299.44;;;6.33;68.50
16664;BME280;8445;51.270;9.434;2024-03-17T00:05:17;100298.91;;;6.30;68.12
16664;BME280;8445;51.270;9.434;2024-03-17T00:07:44;100278.44;;;6.12;68.19
16664;BME280;8445;51.270;9.434;2024-03-17T00:10:10;100297.25;;;6.19;68.40
16664;BME280;8445;51.270;9.434;2024-03-17T00:12:37;100304.75;;;6.14;68.35
16664;BME280;8445;51.270;9.434;2024-03-17T00:15:08;100302.97;;;6.05;68.63
16664;BME280;8445;51.270;9.434;2024-03-17T00:17:34;100288.75;;;5.86;68.71
16664;BME280;8445;51.270;9.434;2024-03-17T00:20:01;100300.44;;;5.84;68.64
16664;BME280;8445;51.270;9.434;2024-03-17T00:22:35;100285.44;;;5.65;69.18
16664;BME280;8445;51.270;9.434;2024-03-17T00:25:07;100285.28;;;5.57;69.19
16664;BME280;8445;51.270;9.434;2024-03-17T00:27:34;100285.72;;;5.52;69.60
16664;BME280;8445;51.270;9.434;2024-03-17T00:30:02;100295.59;;;5.60;69.41
16664;BME280;8445;51.270;9.434;2024-03-17T00:32:28;100303.41;;;5.61;69.36
16664;BME280;8445;51.270;9.434;2024-03-17T00:34:55;100303.25;;;5.63;69.12
16664;BME280;8445;51.270;9.434;2024-03-17T00:37:21;100307.44;;;5.66;69.32
16664;BME280;8445;51.270;9.434;2024-03-17T00:39:47;100291.84;;;5.53;69.13
16664;BME280;8445;51.270;9.434;2024-03-17T00:42:13;100299.06;;;5.60;69.35
16664;BME280;8445;51.270;9.434;2024-03-17T00:44:40;100284.91;;;5.52;68.82
16664;BME280;8445;51.270;9.434;2024-03-17T00:47:07;100302.56;;;5.61;68.81
16664;BME280;8445;51.270;9.434;2024-03-17T00:49:33;100281.53;;;5.40;68.79
16664;BME280;8445;51.270;9.434;2024-03-17T00:51:59;100259.53;;;5.20;68.95
16664;BME280;8445;51.270;9.434;2024-03-17T00:54:25;100282.78;;;5.26;69.52
16664;BME280;8445;51.270;9.434;2024-03-17T00:56:51;100295.00;;;5.27;69.50
16664;BME280;8445;51.270;9.434;2024-03-17T00:59:17;100292.09;;;5.21;69.56
16664;BME280;8445;51.270;9.434;2024-03-17T01:01:43;100304.72;;;5.17;69.88
16664;BME280;8445;51.270;9.434;2024-03-17T01:04:09;100281.19;;;4.95;70.06
16664;BME280;8445;51.270;9.434;2024-03-17T01:06:35;100289.13;;;4.95;70.06
16664;BME280;8445;51.270;9.434;2024-03-17T01:09:01;100277.97;;;4.91;70.05
16664;BME280;8445;51.270;9.434;2024-03-17T01:11:27;100299.25;;;4.99;70.64
16664;BME280;8445;51.270;9.434;2024-03-17T01:13:53;100277.25;;;4.80;70.43
16664;BME280;8445;51.270;9.434;2024-03-17T01:16:19;100266.25;;;4.74;70.83
16664;BME280;8445;51.270;9.434;2024-03-17T01:18:45;100266.53;;;4.71;70.61
16664;BME280;8445;51.270;9.434;2024-03-17T01:21:11;100278.47;;;4.75;70.46
16664;BME280;8445;51.270;9.434;2024-03-17T01:23:37;100292.50;;;4.76;70.43
16664;BME280;8445;51.270;9.434;2024-03-17T01:26:03;100289.19;;;4.74;70.13
16664;BME280;8445;51.270;9.434;2024-03-17T01:28:29;100284.31;;;4.69;70.49
16664;BME280;8445;51.270;9.434;2024-03-17T01:30:55;100266.44;;;4.52;70.17
16664;BME280;8445;51.270;9.434;2024-03-17T01:33:21;100256.56;;;4.44;70.19
16664;BME280;8445;51.270;9.434;2024-03-17T01:35:47;100282.47;;;4.60;70.18
16664;BME280;8445;51.270;9.434;2024-03-17T01:38:13;100283.69;;;4.56;69.74
16664;BME280;8445;51.270;9.434;2024-03-17T01:40:39;100275.09;;;4.54;70.33
16664;BME280;8445;51.270;9.434;2024-03-17T01:43:10;100246.69;;;4.37;69.81
16664;BME280;8445;51.270;9.434;2024-03-17T01:45:36;100277.00;;;4.52;69.88
16664;BME280;8445;51.270;9.434;2024-03-17T01:48:03;100275.19;;;4.53;69.72
16664;BME280;8445;51.270;9.434;2024-03-17T01:50:36;100263.56;;;4.55;69.70
16664;BME280;8445;51.270;9.434;2024-03-17T01:53:05;100265.94;;;4.58;69.63
16664;BME280;8445;51.270;9.434;2024-03-17T01:55:36;100261.75;;;4.56;69.56
16664;BME280;8445;51.270;9.434;2024-03-17T01:58:04;100264.25;;;4.57;69.70
16664;BME280;8445;51.270;9.434;2024-03-17T02:00:34;100241.97;;;4.40;69.49
16664;BME280;8445;51.270;9.434;2024-03-17T02:03:04;100255.91;;;4.52;69.30
16664;BME280;8445;51.270;9.434;2024-03-17T02:05:30;100252.13;;;4.45;69.82
16664;BME280;8445;51.270;9.434;2024-03-17T02:07:56;100250.28;;;4.36;69.31
16664;BME280;8445;51.270;9.434;2024-03-17T02:10:22;100220.22;;;4.18;69.64
16664;BME280;8445;51.270;9.434;2024-03-17T02:12:48;100247.72;;;4.25;69.54
16664;BME280;8445;51.270;9.434;2024-03-17T02:15:14;100249.94;;;4.20;69.94
16664;BME280;8445;51.270;9.434;2024-03-17T02:17:40;100240.16;;;4.10;70.90
16664;BME280;8445;51.270;9.434;2024-03-17T02:20:07;100239.03;;;4.03;70.86
16664;BME280;8445;51.270;9.434;2024-03-17T02:22:35;100234.25;;;3.97;70.33
16664;BME280;8445;51.270;9.434;2024-03-17T02:25:01;100203.50;;;3.77;70.71
16664;BME280;8445;51.270;9.434;2024-03-17T02:27:28;100239.38;;;3.89;71.81
16664;BME280;8445;51.270;9.434;2024-03-17T02:29:55;100231.97;;;3.83;72.73
16664;BME280;8445;51.270;9.434;2024-03-17T02:32:21;100228.63;;;3.81;73.41
16664;BME280;8445;51.270;9.434;2024-03-17T02:34:52;100230.81;;;3.76;74.15
16664;BME280;8445;51.270;9.434;2024-03-17T02:37:18;100225.56;;;3.76;73.81
16664;BME280;8445;51.270;9.434;2024-03-17T02:39:44;100213.84;;;3.69;72.81
16664;BME280;8445;51.270;9.434;2024-03-17T02:42:11;100206.00;;;3.58;72.87
16664;BME280;8445;51.270;9.434;2024-03-17T02:44:38;100220.47;;;3.63;72.58
16664;BME280;8445;51.270;9.434;2024-03-17T02:47:07;100196.34;;;3.47;72.82
16664;BME280;8445;51.270;9.434;2024-03-17T02:49:36;100222.06;;;3.54;72.49
16664;BME280;8445;51.270;9.434;2024-03-17T02:52:04;100201.56;;;3.37;72.95
16664;BME280;8445;51.270;9.434;2024-03-17T02:54:39;100206.31;;;3.43;73.07
16664;BME280;8445;51.270;9.434;2024-03-17T02:57:06;100221.84;;;3.46;73.31
16664;BME280;8445;51.270;9.434;2024-03-17T02:59:33;100196.09;;;3.29;73.46
16664;BME280;8445;51.270;9.434;2024-03-17T03:02:00;100203.41;;;3.25;73.50
16664;BME280;8445;51.270;9.434;2024-03-17T03:04:27;100204.03;;;3.18;73.64
16664;BME280;8445;51.270;9.434;2024-03-17T03:06:53;100223.78;;;3.23;73.55
16664;BME280;8445;51.270;9.434;2024-03-17T03:09:19;100213.59;;;3.19;72.96
16664;BME280;8445;51.270;9.434;2024-03-17T03:12:00;100201.00;;;3.02;73.18
16664;BME280;8445;51.270;9.434;2024-03-17T03:14:28;100225.84;;;3.09;72.79
16664;BME280;8445;51.270;9.434;2024-03-17T03:16:54;100224.94;;;2.99;72.86
16664;BME280;8445;51.270;9.434;2024-03-17T03:19:21;100225.19;;;2.95;73.13
16664;BME280;8445;51.270;9.434;2024-03-17T03:21:47;100225.06;;;2.86;72.86
16664;BME280;8445;51.270;9.434;2024-03-17T03:24:16;100215.28;;;2.77;72.90
16664;BME280;8445;51.270;9.434;2024-03-17T03:26:43;100226.88;;;2.74;72.73
16664;BME280;8445;51.270;9.434;2024-03-17T03:29:10;100218.06;;;2.64;72.42
16664;BME280;8445;51.270;9.434;2024-03-17T03:31:37;100222.72;;;2.60;72.72
16664;BME280;8445;51.270;9.434;2024-03-17T03:34:06;100221.19;;;2.58;72.54
16664;BME280;8445;51.270;9.434;2024-03-17T03:36:38;100191.56;;;2.33;73.15
16664;BME280;8445;51.270;9.434;2024-03-17T03:39:04;100208.75;;;2.37;73.85
16664;BME280;8445;51.270;9.434;2024-03-17T03:41:31;100223.69;;;2.37;73.63
16664;BME280;8445;51.270;9.434;2024-03-17T03:43:58;100228.13;;;2.36;73.37
16664;BME280;8445;51.270;9.434;2024-03-17T03:46:24;100220.22;;;2.25;72.97
16664;BME280;8445;51.270;9.434;2024-03-17T03:48:51;100176.88;;;1.97;72.76
16664;BME280;8445;51.270;9.434;2024-03-17T03:51:17;100196.22;;;2.07;72.95
16664;BME280;8445;51.270;9.434;2024-03-17T03:53:43;100222.63;;;2.17;72.86
16664;BME280;8445;51.270;9.434;2024-03-17T03:56:09;100211.28;;;2.05;72.78
16664;BME280;8445;51.270;9.434;2024-03-17T03:58:38;100230.97;;;2.11;73.14
16664;BME280;8445;51.270;9.434;2024-03-17T04:01:09;100215.56;;;2.06;73.14
16664;BME280;8445;51.270;9.434;2024-03-17T04:03:37;100230.03;;;2.01;73.07
16664;BME280;8445;51.270;9.434;2024-03-17T04:06:10;100222.16;;;2.01;73.23
16664;BME280;8445;51.270;9.434;2024-03-17T04:08:38;100223.31;;;1.97;73.24
16664;BME280;8445;51.270;9.434;2024-03-17T04:11:05;100212.78;;;1.86;73.40
16664;BME280;8445;51.270;9.434;2024-03-17T04:13:33;100197.25;;;1.71;74.51
16664;BME280;8445;51.270;9.434;2024-03-17T04:16:06;100216.38;;;1.85;74.60
16664;BME280;8445;51.270;9.434;2024-03-17T04:18:33;100238.13;;;1.98;75.21
16664;BME280;8445;51.270;9.434;2024-03-17T04:21:05;100212.91;;;1.84;74.64
16664;BME280;8445;51.270;9.434;2024-03-17T04:23:34;100235.28;;;2.01;74.68
16664;BME280;8445;51.270;9.434;2024-03-17T04:26:01;100236.97;;;2.02;74.30
16664;BME280;8445;51.270;9.434;2024-03-17T04:28:29;100243.16;;;2.01;74.07
16664;BME280;8445;51.270;9.434;2024-03-17T04:31:08;100236.22;;;2.00;73.71
16664;BME280;8445;51.270;9.434;2024-03-17T04:33:34;100244.84;;;2.02;73.62
16664;BME280;8445;51.270;9.434;2024-03-17T04:36:01;100239.78;;;1.99;73.56
16664;BME280;8445;51.270;9.434;2024-03-17T04:38:28;100251.97;;;2.00;73.79
16664;BME280;8445;51.270;9.434;2024-03-17T04:40:54;100245.53;;;1.93;73.75
16664;BME280;8445;51.270;9.434;2024-03-17T04:43:35;100193.44;;;1.64;73.92
16664;BME280;8445;51.270;9.434;2024-03-17T04:46:04;100235.47;;;1.87;74.23
16664;BME280;8445;51.270;9.434;2024-03-17T04:48:34;100230.00;;;1.90;74.39
16664;BME280;8445;51.270;9.434;2024-03-17T04:51:00;100255.09;;;2.05;73.89
16664;BME280;8445;51.270;9.434;2024-03-17T04:53:27;100247.44;;;1.91;74.07
16664;BME280;8445;51.270;9.434;2024-03-17T04:56:04;100266.56;;;2.04;74.39
16664;BME280;8445;51.270;9.434;2024-03-17T04:58:32;100273.38;;;2.06;74.24
16664;BME280;8445;51.270;9.434;2024-03-17T05:01:07;100247.06;;;1.84;74.10
16664;BME280;8445;51.270;9.434;2024-03-17T05:03:34;100204.91;;;1.63;73.89
16664;BME280;8445;51.270;9.434;2024-03-17T05:06:04;100279.72;;;2.04;74.14
16664;BME280;8445;51.270;9.434;2024-03-17T05:08:32;100283.16;;;2.04;74.64
16664;BME280;8445;51.270;9.434;2024-03-17T05:11:04;100281.38;;;2.05;74.47
16664;BME280;8445;51.270;9.434;2024-03-17T05:13:35;100268.81;;;1.97;74.74
16664;BME280;8445;51.270;9.434;2024-03-17T05:16:02;100287.81;;;2.12;74.95
16664;BME280;8445;51.270;9.434;2024-03-17T05:18:29;100268.59;;;2.00;74.67
16664;BME280;8445;51.270;9.434;2024-03-17T05:20:59;100297.16;;;2.16;74.52
16664;BME280;8445;51.270;9.434;2024-03-17T05:23:33;100293.06;;;2.12;74.48
16664;BME280;8445;51.270;9.434;2024-03-17T05:26:00;100301.47;;;2.17;74.37
16664;BME280;8445;51.270;9.434;2024-03-17T05:28:28;100287.94;;;2.11;74.24
16664;BME280;8445;51.270;9.434;2024-03-17T05:30:55;100291.91;;;2.16;74.47
16664;BME280;8445;51.270;9.434;2024-03-17T05:33:24;100276.13;;;2.05;74.41
16664;BME280;8445;51.270;9.434;2024-03-17T05:35:55;100296.69;;;2.22;74.44
16664;BME280;8445;51.270;9.434;2024-03-17T05:38:24;100297.41;;;2.24;74.38
16664;BME280;8445;51.270;9.434;2024-03-17T05:40:58;100292.16;;;2.24;74.24
16664;BME280;8445;51.270;9.434;2024-03-17T05:43:32;100272.81;;;2.14;74.45
16664;BME280;8445;51.270;9.434;2024-03-17T05:46:00;100260.34;;;2.05;74.14
16664;BME280;8445;51.270;9.434;2024-03-17T05:48:27;100304.84;;;2.30;74.17
16664;BME280;8445;51.270;9.434;2024-03-17T05:50:53;100268.03;;;2.19;74.42
16664;BME280;8445;51.270;9.434;2024-03-17T05:53:21;100296.72;;;2.33;74.16
16664;BME280;8445;51.270;9.434;2024-03-17T05:55:47;100298.38;;;2.34;74.37
16664;BME280;8445;51.270;9.434;2024-03-17T05:58:13;100304.84;;;2.42;74.31
16664;BME280;8445;51.270;9.434;2024-03-17T06:00:39;100297.28;;;2.37;74.75
16664;BME280;8445;51.270;9.434;2024-03-17T06:03:06;100281.19;;;2.30;74.47
16664;BME280;8445;51.270;9.434;2024-03-17T06:05:34;100284.28;;;2.35;74.67
16664;BME280;8445;51.270;9.434;2024-03-17T06:08:01;100311.88;;;2.52;74.61
16664;BME280;8445;51.270;9.434;2024-03-17T06:10:32;100288.34;;;2.51;74.83
16664;BME280;8445;51.270;9.434;2024-03-17T06:12:59;100295.06;;;2.55;74.72
16664;BME280;8445;51.270;9.434;2024-03-17T06:15:26;100269.72;;;2.43;74.82
16664;BME280;8445;51.270;9.434;2024-03-17T06:17:55;100285.00;;;2.60;74.96
16664;BME280;8445;51.270;9.434;2024-03-17T06:20:25;100285.47;;;2.65;74.83
16664;BME280;8445;51.270;9.434;2024-03-17T06:22:54;100282.72;;;2.66;74.86
16664;BME280;8445;51.270;9.434;2024-03-17T06:25:20;100285.72;;;2.73;74.96
16664;BME280;8445;51.270;9.434;2024-03-17T06:27:50;100281.88;;;2.77;74.85
16664;BME280;8445;51.270;9.434;2024-03-17T06:30:17;100282.50;;;2.81;74.88
16664;BME280;8445;51.270;9.434;2024-03-17T06:32:45;100276.97;;;2.84;74.93
16664;BME280;8445;51.270;9.434;2024-03-17T06:35:15;100294.41;;;2.96;75.19
16664;BME280;8445;51.270;9.434;2024-03-17T06:37:42;100287.56;;;3.05;75.15
16664;BME280;8445;51.270;9.434;2024-03-17T06:40:15;100280.75;;;3.13;75.23
16664;BME280;8445;51.270;9.434;2024-03-17T06:42:41;100275.56;;;3.23;75.19
16664;BME280;8445;51.270;9.434;2024-03-17T06:45:08;100272.91;;;3.34;75.13
16664;BME280;8445;51.270;9.434;2024-03-17T06:47:38;100272.97;;;3.44;75.35
16664;BME280;8445;51.270;9.434;2024-03-17T06:50:05;100273.66;;;3.57;75.53
16664;BME280;8445;51.270;9.434;2024-03-17T06:52:34;100265.00;;;3.66;75.27
16664;BME280;8445;51.270;9.434;2024-03-17T06:55:00;100269.69;;;3.83;75.40
16664;BME280;8445;51.270;9.434;2024-03-17T06:57:27;100267.81;;;3.95;75.43
16664;BME280;8445;51.270;9.434;2024-03-17T06:59:53;100270.47;;;4.16;75.43
16664;BME280;8445;51.270;9.434;2024-03-17T07:02:19;100273.38;;;4.43;75.26
16664;BME280;8445;51.270;9.434;2024-03-17T07:04:48;100276.94;;;4.73;75.62
16664;BME280;8445;51.270;9.434;2024-03-17T07:07:14;100270.78;;;5.03;75.60
16664;BME280;8445;51.270;9.434;2024-03-17T07:09:41;100243.97;;;5.17;75.33
16664;BME280;8445;51.270;9.434;2024-03-17T07:12:08;100246.94;;;5.53;75.26
16664;BME280;8445;51.270;9.434;2024-03-17T07:14:35;100240.22;;;5.68;74.95
16664;BME280;8445;51.270;9.434;2024-03-17T07:17:03;100240.78;;;5.81;74.80
16664;BME280;8445;51.270;9.434;2024-03-17T07:19:31;100262.34;;;6.06;74.93
16664;BME280;8445;51.270;9.434;2024-03-17T07:22:05;100262.72;;;6.11;74.63
16664;BME280;8445;51.270;9.434;2024-03-17T07:24:33;100259.38;;;6.18;74.71
16664;BME280;8445;51.270;9.434;2024-03-17T07:26:59;100268.69;;;6.32;74.16
16664;BME280;8445;51.270;9.434;2024-03-17T07:29:27;100266.28;;;6.39;74.13
16664;BME280;8445;51.270;9.434;2024-03-17T07:31:58;100235.25;;;6.31;74.10
16664;BME280;8445;51.270;9.434;2024-03-17T07:34:31;100256.63;;;6.47;73.93
16664;BME280;8445;51.270;9.434;2024-03-17T07:37:00;100273.56;;;6.64;73.80
16664;BME280;8445;51.270;9.434;2024-03-17T07:39:31;100255.19;;;6.63;73.48
16664;BME280;8445;51.270;9.434;2024-03-17T07:42:04;100269.16;;;6.82;73.22
16664;BME280;8445;51.270;9.434;2024-03-17T07:44:33;100273.41;;;6.93;72.69
16664;BME280;8445;51.270;9.434;2024-03-17T07:47:03;100272.63;;;7.10;72.44
16664;BME280;8445;51.270;9.434;2024-03-17T07:49:46;100271.44;;;7.23;72.45
16664;BME280;8445;51.270;9.434;2024-03-17T07:52:12;100259.91;;;7.32;72.14
16664;BME280;8445;51.270;9.434;2024-03-17T07:54:38;100264.41;;;7.49;72.07
16664;BME280;8445;51.270;9.434;2024-03-17T07:57:04;100262.81;;;7.56;72.22
16664;BME280;8445;51.270;9.434;2024-03-17T07:59:30;100260.00;;;7.58;71.47
16664;BME280;8445;51.270;9.434;2024-03-17T08:01:57;100258.19;;;7.58;71.77
16664;BME280;8445;51.270;9.434;2024-03-17T08:04:23;100236.25;;;7.48;71.33
16664;BME280;8445;51.270;9.434;2024-03-17T08:06:49;100238.19;;;7.46;70.86
16664;BME280;8445;51.270;9.434;2024-03-17T08:09:20;100253.09;;;7.47;71.04
16664;BME280;8445;51.270;9.434;2024-03-17T08:11:49;100268.09;;;7.56;71.26
16664;BME280;8445;51.270;9.434;2024-03-17T08:14:17;100258.97;;;7.51;71.21
16664;BME280;8445;51.270;9.434;2024-03-17T08:16:48;100250.84;;;7.52;70.55
16664;BME280;8445;51.270;9.434;2024-03-17T08:19:17;100259.13;;;7.49;70.87
16664;BME280;8445;51.270;9.434;2024-03-17T08:21:45;100245.78;;;7.41;71.22
16664;BME280;8445;51.270;9.434;2024-03-17T08:24:21;100249.25;;;7.41;71.08
16664;BME280;8445;51.270;9.434;2024-03-17T08:26:48;100248.13;;;7.44;71.02
16664;BME280;8445;51.270;9.434;2024-03-17T08:29:15;100248.28;;;7.43;71.12
16664;BME280;8445;51.270;9.434;2024-03-17T08:31:46;100246.75;;;7.40;71.16
16664;BME280;8445;51.270;9.434;2024-03-17T08:34:17;100249.78;;;7.45;70.93
16664;BME280;8445;51.270;9.434;2024-03-17T08:36:43;100242.13;;;7.42;70.69
16664;BME280;8445;51.270;9.434;2024-03-17T08:39:09;100241.66;;;7.47;70.51
16664;BME280;8445;51.270;9.434;2024-03-17T08:41:39;100241.81;;;7.45;70.21
16664;BME280;8445;51.270;9.434;2024-03-17T08:44:05;100187.94;;;7.19;70.17
16664;BME280;8445;51.270;9.434;2024-03-17T08:46:31;100228.56;;;7.45;70.22
16664;BME280;8445;51.270;9.434;2024-03-17T08:48:58;100226.91;;;7.44;69.85
16664;BME280;8445;51.270;9.434;2024-03-17T08:51:24;100240.59;;;7.57;69.76
16664;BME280;8445;51.270;9.434;2024-03-17T08:53:50;100230.16;;;7.56;69.96
16664;BME280;8445;51.270;9.434;2024-03-17T08:56:16;100233.50;;;7.58;69.55
16664;BME280;8445;51.270;9.434;2024-03-17T08:58:47;100234.56;;;7.65;69.23
16664;BME280;8445;51.270;9.434;2024-03-17T09:01:21;100211.09;;;7.52;69.24
16664;BME280;8445;51.270;9.434;2024-03-17T09:03:49;100231.66;;;7.76;68.96
16664;BME280;8445;51.270;9.434;2024-03-17T09:06:23;100211.22;;;7.68;68.60
16664;BME280;8445;51.270;9.434;2024-03-17T09:08:52;100230.44;;;7.88;68.82
16664;BME280;8445;51.270;9.434;2024-03-17T09:11:20;100229.81;;;7.94;68.48
16664;BME280;8445;51.270;9.434;2024-03-17T09:13:53;100207.53;;;7.87;68.09
16664;BME280;8445;51.270;9.434;2024-03-17T09:16:22;100241.16;;;8.05;68.20
16664;BME280;8445;51.270;9.434;2024-03-17T09:18:53;100238.03;;;8.09;66.78
16664;BME280;8445;51.270;9.434;2024-03-17T09:21:24;100228.47;;;8.16;66.89
16664;BME280;8445;51.270;9.434;2024-03-17T09:23:51;100228.16;;;8.27;66.52
16664;BME280;8445;51.270;9.434;2024-03-17T09:26:21;100223.94;;;8.35;66.52
16664;BME280;8445;51.270;9.434;2024-03-17T09:28:48;100223.63;;;8.38;66.53
16664;BME280;8445;51.270;9.434;2024-03-17T09:31:13;100235.94;;;8.47;66.17
16664;BME280;8445;51.270;9.434;2024-03-17T09:33:39;100233.19;;;8.56;65.79
16664;BME280;8445;51.270;9.434;2024-03-17T09:36:07;100239.34;;;8.65;66.20
16664;BME280;8445;51.270;9.434;2024-03-17T09:38:37;100231.41;;;8.73;66.33
16664;BME280;8445;51.270;9.434;2024-03-17T09:41:06;100207.69;;;8.72;66.11
16664;BME280;8445;51.270;9.434;2024-03-17T09:43:35;100226.81;;;8.92;65.59
16664;BME280;8445;51.270;9.434;2024-03-17T09:46:05;100217.22;;;8.99;65.08
16664;BME280;8445;51.270;9.434;2024-03-17T09:48:31;100222.91;;;9.12;64.32
16664;BME280;8445;51.270;9.434;2024-03-17T09:51:00;100197.63;;;9.08;63.40
16664;BME280;8445;51.270;9.434;2024-03-17T09:53:32;100219.91;;;9.31;63.55
16664;BME280;8445;51.270;9.434;2024-03-17T09:56:03;100223.44;;;9.40;63.20
16664;BME280;8445;51.270;9.434;2024-03-17T09:58:31;100206.47;;;9.41;63.16
16664;BME280;8445;51.270;9.434;2024-03-17T10:00:58;100222.78;;;9.54;62.95
16664;BME280;8445;51.270;9.434;2024-03-17T10:03:44;100209.31;;;9.56;62.56
16664;BME280;8445;51.270;9.434;2024-03-17T10:06:16;100221.94;;;9.78;62.12
16664;BME280;8445;51.270;9.434;2024-03-17T10:08:52;100220.25;;;9.85;62.06
16664;BME280;8445;51.270;9.434;2024-03-17T10:11:23;100220.25;;;9.93;61.78
16664;BME280;8445;51.270;9.434;2024-03-17T10:14:07;100207.94;;;10.00;61.69
16664;BME280;8445;51.270;9.434;2024-03-17T10:16:36;100202.13;;;10.05;61.13
16664;BME280;8445;51.270;9.434;2024-03-17T10:19:13;100211.59;;;10.16;60.08
16664;BME280;8445;51.270;9.434;2024-03-17T10:21:42;100215.25;;;10.23;60.57
16664;BME280;8445;51.270;9.434;2024-03-17T10:24:23;100182.13;;;10.17;60.98
16664;BME280;8445;51.270;9.434;2024-03-17T10:26:55;100199.38;;;10.38;60.48
16664;BME280;8445;51.270;9.434;2024-03-17T10:29:32;100197.88;;;10.43;60.53
16664;BME280;8445;51.270;9.434;2024-03-17T10:32:13;100202.97;;;10.61;60.54
16664;BME280;8445;51.270;9.434;2024-03-17T10:34:39;100201.22;;;10.76;59.33
16664;BME280;8445;51.270;9.434;2024-03-17T10:37:10;100213.81;;;10.90;59.38
16664;BME280;8445;51.270;9.434;2024-03-17T10:39:37;100212.41;;;11.03;59.25
16664;BME280;8445;51.270;9.434;2024-03-17T10:42:07;100217.88;;;11.09;59.16
16664;BME280;8445;51.270;9.434;2024-03-17T10:44:45;100210.81;;;11.16;58.78
16664;BME280;8445;51.270;9.434;2024-03-17T10:47:30;100190.22;;;11.10;58.16
16664;BME280;8445;51.270;9.434;2024-03-17T10:49:58;100214.44;;;11.23;57.47
16664;BME280;8445;51.270;9.434;2024-03-17T10:52:33;100208.28;;;11.23;57.69
16664;BME280;8445;51.270;9.434;2024-03-17T10:55:08;100195.84;;;11.15;58.20
16664;BME280;8445;51.270;9.434;2024-03-17T11:00:07;100202.78;;;11.24;57.71
16664;BME280;8445;51.270;9.434;2024-03-17T11:02:36;100194.78;;;11.24;58.24
16664;BME280;8445;51.270;9.434;2024-03-17T11:05:10;100158.41;;;11.09;57.97
16664;BME280;8445;51.270;9.434;2024-03-17T11:07:40;100165.97;;;11.20;55.40
16664;BME280;8445;51.270;9.434;2024-03-17T11:10:26;100182.47;;;11.23;56.19
16664;BME280;8445;51.270;9.434;2024-03-17T11:12:58;100182.31;;;11.40;56.85
16664;BME280;8445;51.270;9.434;2024-03-17T11:21:18;100178.53;;;11.72;56.95
16664;BME280;8445;51.270;9.434;2024-03-17T11:24:02;100164.50;;;11.78;56.80
16664;BME280;8445;51.270;9.434;2024-03-17T11:26:32;100165.19;;;11.95;56.78
16664;BME280;8445;51.270;9.434;2024-03-17T11:29:01;100173.66;;;12.13;56.67
16664;BME280;8445;51.270;9.434;2024-03-17T11:31:42;100170.16;;;12.27;55.87
16664;BME280;8445;51.270;9.434;2024-03-17T11:34:36;100177.69;;;12.38;56.17
16664;BME280;8445;51.270;9.434;2024-03-17T11:37:04;100149.72;;;12.34;55.64
16664;BME280;8445;51.270;9.434;2024-03-17T11:39:56;100153.19;;;12.50;54.97
16664;BME280;8445;51.270;9.434;2024-03-17T11:42:28;100143.13;;;12.52;54.63
16664;BME280;8445;51.270;9.434;2024-03-17T11:45:05;100136.47;;;12.62;54.80
16664;BME280;8445;51.270;9.434;2024-03-17T11:47:39;100155.06;;;12.85;55.14
16664;BME280;8445;51.270;9.434;2024-03-17T11:50:08;100161.19;;;13.00;54.33
16664;BME280;8445;51.270;9.434;2024-03-17T11:52:38;100151.00;;;13.11;53.47
16664;BME280;8445;51.270;9.434;2024-03-17T11:55:16;100132.91;;;13.13;53.71
16664;BME280;8445;51.270;9.434;2024-03-17T11:57:44;100126.31;;;13.30;53.40
16664;BME280;8445;51.270;9.434;2024-03-17T12:00:24;100117.94;;;13.40;52.22
16664;BME280;8445;51.270;9.434;2024-03-17T12:02:51;100144.50;;;13.63;52.83
16664;BME280;8445;51.270;9.434;2024-03-17T12:05:17;100136.06;;;13.66;52.64
16664;BME280;8445;51.270;9.434;2024-03-17T12:07:44;100126.22;;;13.73;52.65
16664;BME280;8445;51.270;9.434;2024-03-17T12:10:13;100124.63;;;13.78;53.02
16664;BME280;8445;51.270;9.434;2024-03-17T12:12:47;100122.78;;;13.79;52.27
16664;BME280;8445;51.270;9.434;2024-03-17T12:15:20;100129.34;;;13.76;52.85
16664;BME280;8445;51.270;9.434;2024-03-17T12:17:52;100128.53;;;13.76;52.09
16664;BME280;8445;51.270;9.434;2024-03-17T12:20:20;100126.41;;;13.71;50.93
16664;BME280;8445;51.270;9.434;2024-03-17T12:22:47;100102.81;;;13.53;50.96
16664;BME280;8445;51.270;9.434;2024-03-17T12:25:19;100094.53;;;13.48;51.47
16664;BME280;8445;51.270;9.434;2024-03-17T12:27:47;100119.13;;;13.58;51.60
16664;BME280;8445;51.270;9.434;2024-03-17T12:30:15;100119.13;;;13.58;51.22
16664;BME280;8445;51.270;9.434;2024-03-17T12:32:44;100125.16;;;13.67;51.17
16664;BME280;8445;51.270;9.434;2024-03-17T12:35:15;100122.72;;;13.72;50.56
16664;BME280;8445;51.270;9.434;2024-03-17T12:37:45;100120.09;;;13.79;51.19
16664;BME280;8445;51.270;9.434;2024-03-17T12:40:22;100113.75;;;13.86;51.29
16664;BME280;8445;51.270;9.434;2024-03-17T12:42:50;100114.66;;;14.00;51.22
16664;BME280;8445;51.270;9.434;2024-03-17T12:45:21;100112.88;;;14.14;50.91
16664;BME280;8445;51.270;9.434;2024-03-17T12:47:49;100094.56;;;14.17;50.43
16664;BME280;8445;51.270;9.434;2024-03-17T12:50:16;100086.59;;;14.31;50.40
16664;BME280;8445;51.270;9.434;2024-03-17T12:52:53;100111.66;;;14.58;50.08
16664;BME280;8445;51.270;9.434;2024-03-17T12:55:20;100102.19;;;14.68;50.39
16664;BME280;8445;51.270;9.434;2024-03-17T13:01:07;100076.44;;;14.74;47.55
16664;BME280;8445;51.270;9.434;2024-03-17T13:03:35;100079.13;;;14.81;48.89
16664;BME280;8445;51.270;9.434;2024-03-17T13:06:03;100096.72;;;14.96;48.71
16664;BME280;8445;51.270;9.434;2024-03-17T13:08:32;100094.63;;;15.05;48.41
16664;BME280;8445;51.270;9.434;2024-03-17T13:11:01;100064.72;;;14.88;48.02
16664;BME280;8445;51.270;9.434;2024-03-17T13:13:31;100053.97;;;14.88;47.51
16664;BME280;8445;51.270;9.434;2024-03-17T13:15:57;100081.22;;;15.05;48.02
16664;BME280;8445;51.270;9.434;2024-03-17T13:18:24;100071.94;;;15.14;48.11
16664;BME280;8445;51.270;9.434;2024-03-17T13:20:50;100068.44;;;15.20;47.61
16664;BME280;8445;51.270;9.434;2024-03-17T13:23:17;100093.41;;;15.41;47.87
16664;BME280;8445;51.270;9.434;2024-03-17T13:25:43;100090.09;;;15.45;47.95
16664;BME280;8445;51.270;9.434;2024-03-17T13:28:11;100070.50;;;15.45;47.94